Time;durP1;ratioP1;P1;durP2;ratioP2;P2;SDS_P1;SDS_P2;PMS_P1;PMS_P2;Temp;Humidity;BMP_temperature;BMP_pressure;BME280_temperature;BME280_humidity;BME280_pressure;Samples;Min_cycle;Max_cycle;Signal;HPM_P1;HPM_P2
2022/03/03 00:00:58;;;;;;;73.05;44.33;;;1.40;99.90;;;;;;5059164;28;20514;-56
2022/03/03 00:03:26;;;;;;;73.70;46.53;;;1.40;99.90;;;;;;5056616;28;20522;-56
2022/03/03 00:05:52;;;;;;;72.85;43.35;;;1.40;99.90;;;;;;5056235;28;20122;-56
2022/03/03 00:08:23;;;;;;;74.00;45.17;;;1.40;99.90;;;;;;5057697;28;20037;-53
2022/03/03 00:10:48;;;;;;;74.55;44.30;;;1.40;99.90;;;;;;5054289;28;20536;-56
2022/03/03 00:13:14;;;;;;;67.80;42.47;;;1.40;99.90;;;;;;5068536;28;20365;-53
2022/03/03 00:15:40;;;;;;;74.43;44.20;;;1.40;99.90;;;;;;5048831;28;20154;-55
2022/03/03 00:18:06;;;;;;;68.88;43.45;;;1.40;99.90;;;;;;5047693;28;20454;-55
2022/03/03 00:20:31;;;;;;;77.38;46.45;;;1.40;99.90;;;;;;5055596;28;20064;-56
2022/03/03 00:22:57;;;;;;;73.47;44.97;;;1.40;99.90;;;;;;5050320;28;20052;-56
2022/03/03 00:25:23;;;;;;;74.47;44.88;;;1.30;99.90;;;;;;5058535;28;20473;-55
2022/03/03 00:27:49;;;;;;;75.13;45.13;;;1.40;99.90;;;;;;5058759;28;20045;-54
2022/03/03 00:30:15;;;;;;;70.68;44.00;;;1.30;99.90;;;;;;5060016;28;20044;-55
2022/03/03 00:32:41;;;;;;;71.65;43.45;;;1.30;99.90;;;;;;5059291;28;20071;-56
2022/03/03 00:35:08;;;;;;;71.50;43.92;;;1.30;99.90;;;;;;5059514;28;20079;-56
2022/03/03 00:37:34;;;;;;;71.75;45.40;;;1.20;99.90;;;;;;5057352;28;20048;-54
2022/03/03 00:40:00;;;;;;;79.35;47.15;;;1.20;99.90;;;;;;5058645;28;20052;-54
2022/03/03 00:42:26;;;;;;;76.80;46.42;;;1.20;99.90;;;;;;5047663;28;20060;-55
2022/03/03 00:44:51;;;;;;;74.63;46.22;;;1.20;99.90;;;;;;5047755;28;20521;-55
2022/03/03 00:47:17;;;;;;;75.05;44.67;;;1.20;99.90;;;;;;5053482;28;20082;-54
2022/03/03 00:49:43;;;;;;;78.93;44.22;;;1.20;99.90;;;;;;5060978;28;20059;-55
2022/03/03 00:52:09;;;;;;;71.25;44.78;;;1.10;99.90;;;;;;5052967;28;20174;-56
2022/03/03 00:54:34;;;;;;;76.57;45.33;;;1.10;99.90;;;;;;5039448;28;20065;-55
2022/03/03 00:57:00;;;;;;;71.40;44.42;;;1.10;99.90;;;;;;5056610;28;20139;-56
2022/03/03 00:59:26;;;;;;;66.85;41.88;;;1.00;99.90;;;;;;5056791;28;20664;-56
2022/03/03 01:01:51;;;;;;;69.50;42.17;;;1.00;99.90;;;;;;5046895;28;20090;-56
2022/03/03 01:04:19;;;;;;;75.13;43.42;;;1.00;99.90;;;;;;5055248;28;20052;-56
2022/03/03 01:06:45;;;;;;;76.20;45.38;;;0.90;99.90;;;;;;5052832;28;20053;-55
2022/03/03 01:09:11;;;;;;;71.35;44.75;;;0.90;99.90;;;;;;5059677;28;20673;-55
2022/03/03 01:11:36;;;;;;;70.82;43.83;;;0.90;99.90;;;;;;5055765;28;20042;-55
2022/03/03 01:14:02;;;;;;;77.35;42.53;;;0.80;99.90;;;;;;5058866;28;20052;-55
2022/03/03 01:16:28;;;;;;;71.60;43.85;;;0.80;99.90;;;;;;5050387;28;20453;-56
2022/03/03 01:18:54;;;;;;;77.05;44.80;;;0.80;99.90;;;;;;5057605;28;20040;-56
2022/03/03 01:21:21;;;;;;;75.72;44.53;;;0.80;99.90;;;;;;5048136;28;20422;-52
2022/03/03 01:23:47;;;;;;;77.57;44.65;;;0.80;99.90;;;;;;5059407;28;20153;-56
2022/03/03 01:26:12;;;;;;;78.97;44.25;;;0.70;99.90;;;;;;5049472;28;20710;-56
2022/03/03 01:28:38;;;;;;;69.80;44.35;;;0.70;99.90;;;;;;5057560;28;20131;-55
2022/03/03 01:31:04;;;;;;;77.10;45.90;;;0.70;99.90;;;;;;5055818;28;20642;-55
2022/03/03 01:33:30;;;;;;;82.90;47.70;;;0.70;99.90;;;;;;5052425;28;20566;-55
2022/03/03 01:35:55;;;;;;;74.53;43.92;;;0.70;99.90;;;;;;5047726;28;20049;-58
2022/03/03 01:38:21;;;;;;;77.97;45.00;;;0.60;99.90;;;;;;5057411;28;20045;-55
2022/03/03 01:40:47;;;;;;;76.97;46.08;;;0.60;99.90;;;;;;5053909;28;20048;-56
2022/03/03 01:43:13;;;;;;;73.97;44.00;;;0.50;99.90;;;;;;5049243;28;20203;-55
2022/03/03 01:45:42;;;;;;;79.35;45.13;;;0.50;99.90;;;;;;5043250;28;20175;-54
2022/03/03 01:48:07;;;;;;;74.55;44.42;;;0.60;99.90;;;;;;5051607;28;20458;-56
2022/03/03 01:50:33;;;;;;;77.60;45.67;;;0.50;99.90;;;;;;5047530;28;20556;-56
2022/03/03 01:52:59;;;;;;;83.88;45.17;;;0.50;99.90;;;;;;5058075;28;20048;-55
2022/03/03 01:55:25;;;;;;;74.30;43.72;;;0.50;99.90;;;;;;5047975;28;20602;-55
2022/03/03 01:57:52;;;;;;;76.65;44.20;;;0.50;99.90;;;;;;5058241;28;20044;-56
2022/03/03 02:00:18;;;;;;;72.40;44.72;;;0.50;99.90;;;;;;5056316;28;20450;-57
2022/03/03 02:02:46;;;;;;;73.65;45.35;;;0.40;99.90;;;;;;5051742;28;20124;-56
2022/03/03 02:05:12;;;;;;;75.65;44.22;;;0.40;99.90;;;;;;5062897;28;20044;-56
2022/03/03 02:07:38;;;;;;;75.88;44.88;;;0.30;99.90;;;;;;5065430;28;20380;-56
2022/03/03 02:10:04;;;;;;;72.80;43.72;;;0.30;99.90;;;;;;5058617;28;20157;-55
2022/03/03 02:12:30;;;;;;;70.82;43.33;;;0.30;99.90;;;;;;5062699;28;20410;-55
2022/03/03 02:14:57;;;;;;;70.95;43.53;;;0.20;99.90;;;;;;5050861;28;20055;-56
2022/03/03 02:17:22;;;;;;;75.80;42.90;;;0.20;99.90;;;;;;5051826;28;20059;-56
2022/03/03 02:19:48;;;;;;;73.88;43.60;;;0.20;99.90;;;;;;5046058;28;20447;-56
2022/03/03 02:22:14;;;;;;;73.95;45.92;;;0.20;99.90;;;;;;5060506;28;20133;-55
2022/03/03 02:24:40;;;;;;;80.93;45.65;;;0.10;99.90;;;;;;5056641;28;20164;-54
2022/03/03 02:27:07;;;;;;;78.43;45.13;;;0.10;99.90;;;;;;5053656;28;20060;-55
2022/03/03 02:29:34;;;;;;;76.75;44.88;;;0.20;99.90;;;;;;5057879;28;20441;-56
2022/03/03 02:32:00;;;;;;;82.82;45.22;;;0.10;99.90;;;;;;5061961;28;20339;-53
2022/03/03 02:34:32;;;;;;;82.38;47.08;;;0.20;99.90;;;;;;5058021;28;20387;-56
2022/03/03 02:36:58;;;;;;;79.38;46.70;;;0.20;99.90;;;;;;5045276;28;20534;-56
2022/03/03 02:39:24;;;;;;;76.50;43.65;;;0.20;99.90;;;;;;5061813;28;20041;-52
2022/03/03 02:41:50;;;;;;;77.70;47.75;;;0.20;99.90;;;;;;5065893;28;20396;-53
2022/03/03 02:44:16;;;;;;;78.18;46.42;;;0.20;99.90;;;;;;5061619;28;20624;-55
2022/03/03 02:46:42;;;;;;;78.60;45.50;;;0.10;99.90;;;;;;5061489;28;20131;-55
2022/03/03 02:49:11;;;;;;;84.07;46.33;;;0.20;99.90;;;;;;5053385;28;20118;-56
2022/03/03 02:51:40;;;;;;;77.72;46.03;;;0.10;99.90;;;;;;5061229;28;20048;-56
2022/03/03 02:54:06;;;;;;;78.05;45.13;;;0.20;99.90;;;;;;5060041;28;20133;-56
2022/03/03 02:57:53;;;;;;;78.20;46.03;;;0.20;99.90;;;;;;5045739;28;20062;-56
2022/03/03 02:59:17;;;;;;;78.47;44.28;;;0.10;99.90;;;;;;5043206;28;20056;-55
2022/03/03 03:01:43;;;;;;;82.22;47.72;;;0.10;99.90;;;;;;5045730;28;20074;-56
2022/03/03 03:04:09;;;;;;;76.60;44.25;;;0.10;99.90;;;;;;5051847;28;20068;-49
2022/03/03 03:06:35;;;;;;;73.22;43.33;;;0.10;99.90;;;;;;5047614;28;20049;-56
2022/03/03 03:09:00;;;;;;;75.43;47.13;;;0.00;99.90;;;;;;5061582;28;20641;-54
2022/03/03 03:11:26;;;;;;;77.80;45.85;;;0.10;99.90;;;;;;5056890;28;20398;-56
2022/03/03 03:13:52;;;;;;;75.63;46.05;;;0.10;99.90;;;;;;5060866;28;20088;-56
2022/03/03 03:16:17;;;;;;;75.55;45.00;;;0.10;99.90;;;;;;5059279;28;20115;-56
2022/03/03 03:18:43;;;;;;;81.00;45.72;;;0.00;99.90;;;;;;5061852;28;20371;-56
2022/03/03 03:21:09;;;;;;;72.53;42.33;;;0.00;99.90;;;;;;5047538;28;20051;-53
2022/03/03 03:23:35;;;;;;;75.68;44.20;;;0.00;99.90;;;;;;5050051;28;20052;-56
2022/03/03 03:26:00;;;;;;;72.60;42.92;;;0.00;99.90;;;;;;5058999;28;20090;-55
2022/03/03 03:28:26;;;;;;;79.85;46.65;;;0.00;99.90;;;;;;5050593;28;20064;-55
2022/03/03 03:30:52;;;;;;;74.55;43.45;;;-0.10;99.90;;;;;;5047822;28;20479;-55
2022/03/03 03:33:18;;;;;;;75.47;44.60;;;-0.10;99.90;;;;;;5054802;28;20044;-56
2022/03/03 03:35:44;;;;;;;69.75;43.38;;;-0.10;99.90;;;;;;5061518;28;20080;-55
2022/03/03 03:38:10;;;;;;;72.28;45.45;;;-0.10;99.90;;;;;;5052519;28;20472;-55
2022/03/03 03:40:36;;;;;;;74.93;44.65;;;-0.10;99.90;;;;;;5059916;28;20511;-56
2022/03/03 03:43:02;;;;;;;71.45;44.40;;;-0.10;99.90;;;;;;5061056;28;20573;-56
2022/03/03 03:45:28;;;;;;;72.07;42.88;;;-0.10;99.90;;;;;;5059744;28;20052;-56
2022/03/03 03:47:56;;;;;;;77.82;44.65;;;-0.20;99.90;;;;;;5059049;28;20047;-55
2022/03/03 03:50:22;;;;;;;76.03;43.55;;;-0.20;99.90;;;;;;5350333;22;20062;-56
2022/03/03 03:52:48;;;;;;;76.72;44.47;;;-0.20;99.90;;;;;;5037194;28;20057;-55
2022/03/03 03:55:14;;;;;;;82.13;47.00;;;-0.20;99.90;;;;;;5033876;28;20063;-55
2022/03/03 03:57:40;;;;;;;71.40;44.25;;;-0.20;99.90;;;;;;5031315;28;20582;-55
2022/03/03 04:00:13;;;;;;;73.72;45.17;;;-0.20;99.90;;;;;;5033964;28;20048;-55
2022/03/03 04:02:44;;;;;;;71.68;44.22;;;-0.20;99.90;;;;;;5033819;28;20142;-53
2022/03/03 04:05:13;;;;;;;75.35;44.35;;;-0.20;99.90;;;;;;5023358;28;20041;-51
2022/03/03 04:07:40;;;;;;;75.53;43.95;;;-0.20;99.90;;;;;;5026795;28;20057;-51
2022/03/03 04:10:06;;;;;;;81.95;44.67;;;-0.20;99.90;;;;;;5032342;28;20123;-55
2022/03/03 04:12:32;;;;;;;72.25;43.03;;;-0.20;99.90;;;;;;5030834;28;20586;-56
2022/03/03 04:14:57;;;;;;;73.03;44.33;;;-0.20;99.90;;;;;;5032529;28;20041;-56
2022/03/03 04:17:23;;;;;;;70.85;43.13;;;-0.20;99.90;;;;;;5038985;28;20055;-56
2022/03/03 04:19:49;;;;;;;69.97;42.15;;;-0.20;99.90;;;;;;5034176;28;20053;-54
2022/03/03 04:22:19;;;;;;;71.05;44.13;;;-0.20;99.90;;;;;;5030090;28;20133;-55
2022/03/03 04:24:50;;;;;;;72.03;42.58;;;-0.20;99.90;;;;;;5031392;28;20053;-54
2022/03/03 04:27:17;;;;;;;78.10;45.50;;;-0.20;99.90;;;;;;5027256;28;20115;-55
2022/03/03 04:29:42;;;;;;;67.07;41.28;;;-0.20;99.90;;;;;;5029438;28;20549;-55
2022/03/03 04:32:08;;;;;;;69.72;42.28;;;-0.20;99.90;;;;;;5032945;28;20057;-56
2022/03/03 04:34:35;;;;;;;70.70;43.22;;;-0.20;99.90;;;;;;5010068;28;20052;-56
2022/03/03 04:37:01;;;;;;;69.63;39.95;;;-0.20;99.90;;;;;;5038432;28;20045;-55
2022/03/03 04:39:27;;;;;;;65.20;38.92;;;-0.20;99.90;;;;;;5024955;28;20045;-56
2022/03/03 04:41:52;;;;;;;71.38;41.78;;;-0.20;99.90;;;;;;5033873;28;20534;-56
2022/03/03 04:44:18;;;;;;;70.90;40.67;;;-0.20;99.90;;;;;;5025086;28;20081;-55
2022/03/03 04:46:44;;;;;;;68.13;41.83;;;-0.20;99.90;;;;;;5031210;28;20052;-55
2022/03/03 04:49:10;;;;;;;66.90;40.63;;;-0.30;99.90;;;;;;5024944;28;20411;-56
2022/03/03 04:51:36;;;;;;;63.33;40.65;;;-0.30;99.90;;;;;;5037566;28;20465;-56
2022/03/03 04:54:09;;;;;;;69.15;41.25;;;-0.30;99.90;;;;;;5046590;28;20064;-56
2022/03/03 04:56:36;;;;;;;69.50;41.20;;;-0.20;99.90;;;;;;5040306;28;20053;-56
2022/03/03 04:59:03;;;;;;;65.20;38.67;;;-0.20;99.90;;;;;;5033534;28;21044;-55
2022/03/03 05:01:29;;;;;;;68.93;41.88;;;-0.20;99.90;;;;;;5026741;28;20123;-55
2022/03/03 05:03:55;;;;;;;70.00;41.92;;;-0.30;99.90;;;;;;5043639;28;20054;-55
2022/03/03 05:06:20;;;;;;;67.70;41.17;;;-0.20;99.90;;;;;;5030120;28;20040;-55
2022/03/03 05:08:46;;;;;;;64.60;39.72;;;-0.20;99.90;;;;;;5050566;28;20084;-55
2022/03/03 05:11:12;;;;;;;65.00;40.63;;;-0.20;99.90;;;;;;5034598;28;20078;-56
2022/03/03 05:13:38;;;;;;;62.78;40.55;;;-0.20;99.90;;;;;;5053876;28;20486;-46
2022/03/03 05:16:05;;;;;;;64.68;40.17;;;-0.20;99.90;;;;;;5028998;28;20052;-54
2022/03/03 05:18:31;;;;;;;64.38;38.63;;;-0.20;99.90;;;;;;5011561;28;20128;-55
2022/03/03 05:20:57;;;;;;;66.55;40.38;;;-0.30;99.90;;;;;;5053850;28;20379;-55
2022/03/03 05:23:23;;;;;;;62.05;40.30;;;-0.30;99.90;;;;;;5053157;28;20055;-56
2022/03/03 05:25:50;;;;;;;61.00;39.08;;;-0.30;99.90;;;;;;5031919;28;20060;-54
2022/03/03 05:28:16;;;;;;;57.42;39.47;;;-0.30;99.90;;;;;;5034617;28;20064;-55
2022/03/03 05:30:42;;;;;;;62.88;40.03;;;-0.30;99.90;;;;;;5024377;28;20494;-56
2022/03/03 05:33:08;;;;;;;59.90;39.45;;;-0.30;99.90;;;;;;5027652;28;20060;-54
2022/03/03 05:35:34;;;;;;;60.42;39.47;;;-0.40;99.90;;;;;;5024666;28;20528;-53
2022/03/03 05:38:00;;;;;;;62.13;38.10;;;-0.40;99.90;;;;;;5036077;28;20117;-50
2022/03/03 05:40:26;;;;;;;62.75;37.67;;;-0.40;99.90;;;;;;5048540;28;20052;-55
2022/03/03 05:42:52;;;;;;;60.97;37.65;;;-0.40;99.90;;;;;;5058583;28;20045;-51
2022/03/03 05:45:18;;;;;;;62.67;38.92;;;-0.40;99.90;;;;;;5035049;28;20513;-55
2022/03/03 05:47:46;;;;;;;62.55;40.15;;;-0.40;99.90;;;;;;5058196;28;20048;-54
2022/03/03 05:50:12;;;;;;;73.20;39.90;;;-0.40;99.90;;;;;;5045714;28;20053;-51
2022/03/03 05:52:38;;;;;;;64.20;39.72;;;-0.40;99.90;;;;;;5027436;28;20060;-56
2022/03/03 05:55:07;;;;;;;67.18;38.92;;;-0.50;99.90;;;;;;5051620;28;20036;-56
2022/03/03 05:57:36;;;;;;;61.45;38.97;;;-0.50;99.90;;;;;;5033225;28;20053;-56
2022/03/03 06:00:15;;;;;;;59.20;38.88;;;-0.50;99.90;;;;;;5024474;28;20121;-54
2022/03/03 06:02:51;;;;;;;58.80;37.78;;;-0.50;99.90;;;;;;5074768;28;20044;-55
2022/03/03 06:05:26;;;;;;;63.00;38.92;;;-0.50;99.90;;;;;;5046026;28;20052;-55
2022/03/03 06:08:04;;;;;;;57.15;38.25;;;-0.50;99.90;;;;;;5037050;28;20379;-55
2022/03/03 06:10:35;;;;;;;58.33;38.83;;;-0.60;99.90;;;;;;5046712;28;20512;-54
2022/03/03 06:13:19;;;;;;;60.83;37.55;;;-0.60;99.90;;;;;;5063092;28;20083;-54
2022/03/03 06:15:47;;;;;;;65.65;39.72;;;-0.60;99.90;;;;;;5031185;28;20096;-54
2022/03/03 06:18:13;;;;;;;59.20;39.45;;;-0.60;99.90;;;;;;5055384;28;20052;-56
2022/03/03 06:20:44;;;;;;;57.05;38.15;;;-0.50;99.90;;;;;;5035154;28;20143;-53
2022/03/03 06:23:10;;;;;;;58.88;38.33;;;-0.60;99.90;;;;;;5048677;28;20045;-54
2022/03/03 06:25:38;;;;;;;55.80;38.15;;;-0.60;99.90;;;;;;5056303;28;20499;-55
2022/03/03 06:28:04;;;;;;;58.83;38.38;;;-0.60;99.90;;;;;;5052761;28;20092;-55
2022/03/03 06:30:31;;;;;;;59.97;38.70;;;-0.50;99.90;;;;;;5043954;28;20049;-54
2022/03/03 06:32:58;;;;;;;61.08;39.65;;;-0.50;99.90;;;;;;5032351;28;20589;-56
2022/03/03 06:35:24;;;;;;;58.53;37.67;;;-0.50;99.90;;;;;;5057048;28;20048;-55
2022/03/03 06:37:50;;;;;;;55.55;36.78;;;-0.50;99.90;;;;;;5052954;28;20144;-51
2022/03/03 06:40:16;;;;;;;56.97;38.03;;;-0.50;99.90;;;;;;5051410;28;20041;-55
2022/03/03 06:42:42;;;;;;;56.53;36.08;;;-0.40;99.90;;;;;;5043049;28;20187;-55
2022/03/03 06:45:09;;;;;;;59.53;37.88;;;-0.30;99.90;;;;;;5046681;28;21567;-55
2022/03/03 06:47:34;;;;;;;54.45;35.08;;;-0.20;99.90;;;;;;5066240;28;20052;-55
2022/03/03 06:50:00;;;;;;;58.28;36.38;;;-0.10;99.90;;;;;;5058294;28;20481;-53
2022/03/03 06:52:27;;;;;;;55.80;37.53;;;0.10;99.90;;;;;;5026894;28;20056;-55
2022/03/03 06:54:53;;;;;;;59.33;36.40;;;0.30;99.90;;;;;;5054101;28;20098;-56
2022/03/03 06:57:23;;;;;;;53.40;34.92;;;0.50;99.90;;;;;;5043752;28;20040;-51
2022/03/03 06:59:52;;;;;;;51.40;33.88;;;0.70;99.90;;;;;;5048097;28;20044;-55
2022/03/03 07:02:18;;;;;;;51.15;35.15;;;0.90;99.90;;;;;;5050933;28;20056;-55
2022/03/03 07:04:49;;;;;;;46.80;33.20;;;1.00;99.90;;;;;;5029239;28;20064;-56
2022/03/03 07:07:15;;;;;;;55.28;35.88;;;1.20;99.90;;;;;;5017352;28;20063;-55
2022/03/03 07:09:41;;;;;;;49.55;33.95;;;1.20;99.90;;;;;;5060075;28;20045;-55
2022/03/03 07:12:08;;;;;;;53.10;34.67;;;1.30;99.90;;;;;;5054084;28;20040;-55
2022/03/03 07:14:33;;;;;;;50.85;34.58;;;1.30;99.90;;;;;;5051715;28;20056;-55
2022/03/03 07:17:16;;;;;;;49.50;34.10;;;1.30;99.90;;;;;;5042348;28;20113;-54
2022/03/03 07:19:53;;;;;;;49.80;34.42;;;1.30;99.90;;;;;;5037097;28;20047;-55
2022/03/03 07:22:25;;;;;;;52.45;34.42;;;1.30;99.90;;;;;;5055781;28;20045;-52
2022/03/03 07:24:58;;;;;;;48.03;33.55;;;1.20;99.90;;;;;;5055314;28;20058;-55
2022/03/03 07:27:25;;;;;;;45.25;32.72;;;1.10;99.90;;;;;;5040883;28;20060;-55
2022/03/03 07:29:55;;;;;;;48.63;33.45;;;1.10;99.90;;;;;;5039802;28;20060;-55
2022/03/03 07:32:32;;;;;;;47.65;34.53;;;1.10;99.90;;;;;;5030687;28;20059;-55
2022/03/03 07:35:01;;;;;;;51.50;34.13;;;1.10;99.90;;;;;;5029320;28;20040;-56
2022/03/03 07:37:35;;;;;;;48.75;32.20;;;1.10;99.90;;;;;;5028740;28;20048;-48
2022/03/03 07:40:08;;;;;;;47.40;31.42;;;1.10;99.90;;;;;;5047266;28;20063;-55
2022/03/03 07:42:35;;;;;;;44.20;30.20;;;1.20;99.90;;;;;;5027424;28;20503;-56
2022/03/03 07:45:04;;;;;;;41.10;29.30;;;1.30;99.90;;;;;;5052143;28;20053;-54
2022/03/03 07:47:31;;;;;;;41.80;29.40;;;1.50;99.90;;;;;;5036941;28;20133;-53
2022/03/03 07:49:57;;;;;;;41.83;32.05;;;1.70;99.90;;;;;;5015058;28;20041;-55
2022/03/03 07:52:24;;;;;;;41.13;28.33;;;1.80;99.90;;;;;;5033444;28;20053;-53
2022/03/03 07:54:50;;;;;;;44.75;29.83;;;1.90;99.90;;;;;;5048937;28;20056;-55
2022/03/03 07:57:17;;;;;;;42.40;29.42;;;2.00;99.90;;;;;;5056365;28;20040;-55
2022/03/03 07:59:53;;;;;;;43.10;30.08;;;2.20;99.90;;;;;;5052519;28;20600;-55
2022/03/03 08:02:23;;;;;;;41.42;29.67;;;2.30;99.90;;;;;;5057192;28;20048;-56
2022/03/03 08:04:51;;;;;;;36.88;27.10;;;2.50;99.90;;;;;;5035769;28;20478;-53
2022/03/03 08:07:18;;;;;;;41.13;29.63;;;2.70;99.90;;;;;;5051759;28;20307;-56
2022/03/03 08:09:48;;;;;;;40.55;29.17;;;2.80;99.90;;;;;;5044430;28;20386;-55
2022/03/03 08:12:15;;;;;;;35.90;28.00;;;2.90;99.90;;;;;;5039815;28;20048;-56
2022/03/03 08:14:41;;;;;;;38.75;28.92;;;3.00;99.90;;;;;;5046976;28;20122;-54
2022/03/03 08:17:11;;;;;;;38.40;26.80;;;3.10;99.90;;;;;;5044246;28;20453;-56
2022/03/03 08:19:38;;;;;;;38.45;28.92;;;3.30;99.90;;;;;;5044839;28;20680;-53
2022/03/03 08:22:04;;;;;;;41.30;26.80;;;3.40;99.90;;;;;;5047760;28;20041;-56
2022/03/03 08:24:30;;;;;;;41.42;28.90;;;3.50;99.90;;;;;;5039721;28;20313;-56
2022/03/03 08:26:56;;;;;;;37.00;25.92;;;3.60;99.90;;;;;;5035843;28;20057;-56
2022/03/03 08:29:23;;;;;;;34.10;25.42;;;3.70;99.90;;;;;;5058386;28;20052;-52
2022/03/03 08:31:53;;;;;;;35.35;26.60;;;3.80;99.90;;;;;;5057200;28;20052;-57
2022/03/03 08:34:46;;;;;;;35.80;27.10;;;3.90;99.90;;;;;;5052610;28;20044;-51
2022/03/03 08:37:27;;;;;;;37.67;27.38;;;3.90;99.90;;;;;;5059382;28;20087;-56
2022/03/03 08:39:54;;;;;;;33.08;25.70;;;3.90;99.90;;;;;;5052600;28;20049;-55
2022/03/03 08:42:26;;;;;;;39.60;28.08;;;3.90;99.90;;;;;;5049225;28;20072;-55
2022/03/03 08:44:57;;;;;;;35.15;26.83;;;3.90;99.90;;;;;;5033696;28;20119;-55
2022/03/03 08:47:24;;;;;;;38.05;27.90;;;4.00;99.90;;;;;;5044513;28;20052;-51
2022/03/03 08:49:59;;;;;;;34.95;26.38;;;4.10;99.90;;;;;;5055780;28;20043;-55
2022/03/03 08:52:28;;;;;;;32.17;25.92;;;4.20;99.90;;;;;;5017164;28;20575;-56
2022/03/03 08:54:55;;;;;;;33.70;25.25;;;4.30;99.90;;;;;;5039881;28;20135;-55
2022/03/03 08:57:22;;;;;;;29.48;23.92;;;4.40;99.90;;;;;;5052860;28;20418;-57
2022/03/03 08:59:48;;;;;;;36.42;26.27;;;4.40;99.90;;;;;;5028054;28;20060;-56
2022/03/03 09:02:16;;;;;;;33.53;25.25;;;4.50;99.90;;;;;;5053618;28;20456;-55
2022/03/03 09:04:46;;;;;;;32.38;24.85;;;4.50;99.90;;;;;;5046209;28;20048;-56
2022/03/03 09:07:12;;;;;;;31.80;24.45;;;4.70;99.90;;;;;;5044724;28;20322;-53
2022/03/03 09:09:38;;;;;;;32.08;24.83;;;4.70;99.90;;;;;;5055696;28;20190;-55
2022/03/03 09:12:05;;;;;;;28.98;23.30;;;4.90;99.90;;;;;;5063743;28;20556;-56
2022/03/03 09:14:31;;;;;;;29.30;23.50;;;4.90;99.90;;;;;;5040982;28;20092;-56
2022/03/03 09:16:57;;;;;;;32.08;25.10;;;5.10;99.90;;;;;;5059662;28;20056;-56
2022/03/03 09:19:23;;;;;;;29.38;23.50;;;5.10;99.90;;;;;;5056968;28;20568;-55
2022/03/03 09:21:49;;;;;;;29.48;23.48;;;5.20;99.90;;;;;;5042045;28;20047;-57
2022/03/03 09:24:14;;;;;;;30.55;22.95;;;5.30;99.90;;;;;;5036941;28;20058;-55
2022/03/03 09:26:40;;;;;;;28.42;22.80;;;5.40;99.90;;;;;;5006304;28;20057;-56
2022/03/03 09:29:06;;;;;;;29.02;22.38;;;5.40;99.90;;;;;;5027732;28;20044;-56
2022/03/03 09:31:32;;;;;;;34.08;24.30;;;5.50;99.90;;;;;;5043074;28;20635;-56
2022/03/03 09:33:58;;;;;;;27.25;21.80;;;5.60;99.90;;;;;;5056091;28;20040;-57
2022/03/03 09:36:24;;;;;;;26.45;22.25;;;5.70;99.90;;;;;;5043085;28;20044;-57
2022/03/03 09:38:50;;;;;;;26.10;21.95;;;5.80;99.90;;;;;;5042921;28;20118;-56
2022/03/03 09:41:16;;;;;;;27.25;21.45;;;5.90;99.90;;;;;;5037696;28;20045;-57
2022/03/03 09:43:43;;;;;;;26.45;22.50;;;6.00;99.90;;;;;;5036025;28;20048;-61
2022/03/03 09:46:11;;;;;;;26.92;21.50;;;6.10;99.90;;;;;;5036186;28;20612;-57
2022/03/03 09:48:37;;;;;;;23.92;20.70;;;6.20;99.90;;;;;;5041524;28;20051;-56
2022/03/03 09:51:03;;;;;;;24.10;21.23;;;6.20;99.90;;;;;;5005795;28;20052;-58
2022/03/03 09:53:29;;;;;;;27.98;22.25;;;6.40;99.90;;;;;;5036170;28;20419;-58
2022/03/03 09:55:55;;;;;;;26.60;21.17;;;6.40;99.90;;;;;;5026356;28;20476;-58
2022/03/03 09:58:21;;;;;;;26.98;21.38;;;6.50;99.90;;;;;;5031928;28;20041;-55
2022/03/03 10:00:47;;;;;;;26.27;21.98;;;6.60;99.90;;;;;;5026412;28;20152;-57
2022/03/03 10:03:16;;;;;;;24.75;20.90;;;6.70;99.90;;;;;;5024888;28;20053;-57
2022/03/03 10:05:50;;;;;;;25.45;21.02;;;6.70;99.90;;;;;;5016765;28;20091;-58
2022/03/03 10:08:17;;;;;;;23.35;20.00;;;6.80;99.90;;;;;;5035195;28;20354;-50
2022/03/03 10:10:47;;;;;;;21.67;19.30;;;6.90;99.90;;;;;;5035923;28;20094;-57
2022/03/03 10:13:18;;;;;;;23.55;19.65;;;7.00;99.90;;;;;;5036618;28;20057;-58
2022/03/03 10:15:50;;;;;;;23.30;18.48;;;7.00;99.90;;;;;;5019361;28;20048;-57
2022/03/03 10:18:17;;;;;;;24.65;19.25;;;7.10;99.90;;;;;;5034156;28;20045;-57
2022/03/03 10:20:53;;;;;;;26.90;20.80;;;7.20;99.90;;;;;;5036807;28;20506;-57
2022/03/03 10:23:30;;;;;;;21.75;19.38;;;7.30;99.90;;;;;;5022441;28;20162;-53
2022/03/03 10:25:58;;;;;;;23.33;19.92;;;7.30;99.90;;;;;;5041359;28;20045;-58
2022/03/03 10:28:30;;;;;;;21.00;18.77;;;7.40;99.90;;;;;;5041448;28;20238;-57
2022/03/03 10:31:13;;;;;;;24.03;19.73;;;7.50;99.90;;;;;;5014734;28;20093;-57
2022/03/03 10:33:46;;;;;;;19.92;17.83;;;7.60;99.90;;;;;;5016269;28;20414;-57
2022/03/03 10:36:24;;;;;;;20.55;18.35;;;7.70;99.90;;;;;;5028052;28;20052;-57
2022/03/03 10:39:02;;;;;;;20.70;17.52;;;7.80;99.90;;;;;;5011322;28;20133;-56
2022/03/03 10:41:43;;;;;;;22.25;18.38;;;7.90;99.90;;;;;;5014603;28;20178;-57
2022/03/03 10:44:15;;;;;;;20.85;17.35;;;8.00;99.90;;;;;;5036292;28;20048;-56
2022/03/03 10:47:03;;;;;;;19.95;17.83;;;8.00;99.90;;;;;;5032484;28;20053;-56
2022/03/03 10:49:30;;;;;;;21.52;17.98;;;8.00;99.90;;;;;;4986840;28;20068;-56
2022/03/03 10:52:18;;;;;;;19.88;17.23;;;8.10;99.90;;;;;;5020553;28;20051;-57
2022/03/03 10:55:25;;;;;;;20.65;17.20;;;8.20;99.90;;;;;;5037822;28;20053;-57
2022/03/03 10:57:57;;;;;;;22.40;17.67;;;8.20;99.90;;;;;;5038688;28;20061;-61
2022/03/03 11:00:27;;;;;;;18.88;15.70;;;8.30;99.90;;;;;;5026064;28;20064;-57
2022/03/03 11:03:01;;;;;;;19.85;17.65;;;8.30;99.90;;;;;;5058745;28;20063;-57
2022/03/03 11:05:29;;;;;;;19.90;16.77;;;8.30;99.90;;;;;;5053805;28;20051;-57
2022/03/03 11:07:58;;;;;;;19.88;17.75;;;8.30;99.90;;;;;;5031414;28;20048;-57
2022/03/03 11:10:26;;;;;;;20.38;17.27;;;8.40;99.90;;;;;;5049721;28;20452;-57
2022/03/03 11:12:52;;;;;;;17.80;15.90;;;8.40;99.90;;;;;;5057520;28;20036;-57
2022/03/03 11:15:20;;;;;;;19.52;16.40;;;8.40;99.90;;;;;;5055118;28;20142;-57
2022/03/03 11:17:48;;;;;;;18.77;16.77;;;8.50;99.90;;;;;;5024140;28;20057;-58
2022/03/03 11:20:16;;;;;;;18.15;16.15;;;8.50;99.70;;;;;;5059505;28;20052;-58
2022/03/03 11:22:43;;;;;;;20.73;17.45;;;8.60;99.90;;;;;;5047813;28;20053;-57
2022/03/03 11:25:16;;;;;;;19.35;16.25;;;8.70;99.90;;;;;;5030031;28;20156;-56
2022/03/03 11:27:42;;;;;;;19.47;17.03;;;8.70;99.60;;;;;;5048835;28;20125;-49
2022/03/03 11:30:38;;;;;;;18.33;15.13;;;8.70;98.80;;;;;;5055935;28;20414;-58
2022/03/03 11:33:30;;;;;;;17.95;15.55;;;8.70;99.00;;;;;;5035909;28;20067;-58
2022/03/03 11:36:05;;;;;;;16.38;14.68;;;8.80;99.80;;;;;;5054062;28;20076;-59
2022/03/03 11:38:54;;;;;;;18.38;15.15;;;8.90;99.30;;;;;;5032387;28;20139;-59
2022/03/03 11:41:25;;;;;;;18.50;16.15;;;8.90;99.30;;;;;;5053084;28;20049;-58
2022/03/03 11:44:04;;;;;;;19.27;16.08;;;9.00;99.10;;;;;;5023886;28;20048;-59
2022/03/03 11:46:50;;;;;;;16.50;14.80;;;9.10;98.70;;;;;;5053997;28;20084;-58
2022/03/03 11:49:17;;;;;;;15.82;14.07;;;9.10;98.80;;;;;;5040183;28;20051;-59
2022/03/03 11:51:43;;;;;;;17.17;15.27;;;9.20;99.20;;;;;;5059361;28;20516;-52
2022/03/03 11:54:28;;;;;;;16.13;13.90;;;9.30;99.60;;;;;;5047861;28;20324;-54
2022/03/03 11:57:10;;;;;;;15.73;13.55;;;9.30;98.80;;;;;;5058387;28;20132;-59
2022/03/03 11:59:40;;;;;;;16.05;14.38;;;9.40;98.90;;;;;;5025481;28;20128;-58
2022/03/03 12:02:07;;;;;;;15.13;13.57;;;9.40;99.20;;;;;;5055695;28;20052;-59
2022/03/03 12:04:34;;;;;;;15.73;13.00;;;9.40;99.40;;;;;;5040269;28;20057;-60
2022/03/03 12:07:39;;;;;;;16.10;13.75;;;9.50;99.50;;;;;;5052656;28;20048;-60
2022/03/03 12:10:20;;;;;;;;;;;9.60;99.30;;;;;;5056369;28;20058;-57
2022/03/03 12:12:46;;;;;;;13.68;12.18;;;9.60;99.10;;;;;;5059694;28;20145;-60
2022/03/03 12:15:11;;;;;;;17.17;14.50;;;9.60;98.80;;;;;;5040017;28;20076;-60
2022/03/03 12:17:46;;;;;;;15.32;13.68;;;9.60;99.20;;;;;;5052453;28;20147;-60
2022/03/03 12:20:24;;;;;;;17.58;14.73;;;9.70;99.90;;;;;;5028418;28;20708;-59
2022/03/03 12:23:05;;;;;;;17.10;15.27;;;9.70;99.90;;;;;;5058609;28;20197;-56
2022/03/03 12:25:58;;;;;;;15.35;13.70;;;9.70;99.90;;;;;;5029994;28;20044;-58
2022/03/03 12:28:46;;;;;;;16.27;13.07;;;9.70;99.90;;;;;;5037520;28;20406;-59
2022/03/03 12:31:25;;;;;;;13.52;12.13;;;9.70;99.90;;;;;;5038025;28;20059;-60
2022/03/03 12:34:09;;;;;;;13.95;12.52;;;9.70;99.90;;;;;;5057856;28;20155;-59
2022/03/03 12:36:37;;;;;;;13.63;11.50;;;9.70;99.90;;;;;;5022274;28;20052;-59
2022/03/03 12:39:05;;;;;;;15.13;11.90;;;9.70;99.80;;;;;;5050844;28;20159;-59
2022/03/03 12:41:33;;;;;;;12.52;9.90;;;9.70;99.90;;;;;;5028893;28;20049;-58
2022/03/03 12:44:06;;;;;;;13.73;10.70;;;9.80;99.50;;;;;;5046974;28;20407;-58